Cork, Ireland

12:49 PM GMT on December 28, 2014 (GMT +0000)
Cork | Change Station
CLOSE
Current Station
Airport
Location: Cork,
Elevation: 531 ft
Nearby Weather Stations

Elev 531 ft 51.85 °N, 8.48 °W | Updated 19 minutes ago

Scattered Clouds
Scattered Clouds
37 °F
Feels Like 31 °F
N
9
Wind Variable Wind from North

Today
High -- | Low -- °F
--% Chance of Precip.
Yesterday
High -- | Low -- °F
Precip. -- in
8:41 AM 4:29 PM
Waxing Crescent, 47% visible
Pressure 30.54 in
Visibility 6.2 miles
Clouds Few 1800 ft
Scattered Clouds 22000 ft
Windchill 31 °F
Dew Point 34 °F
Humidity 87%
Rainfall 0.00 in
Snow Depth Not available.
UV 1 out of 12
Pollen Not available.
Air Quality Not available.
Flu Activity Not available.
METAR EICK 281230Z 35008KT 9999 FEW018 SCT220 03/01 Q1034 NOSIG

More Conditions Fewer Conditions

Pressure 30.54 in
Visibility 6.2 miles
Clouds Few 1800 ft
Scattered Clouds 22000 ft
Windchill 31 °F
Dew Point 34 °F
Humidity 87%
Rainfall 0.00 in
Snow Depth Not available.
UV 1 out of 12
Pollen Not available.
Air Quality Not available.
Flu Activity Not available.
METAR EICK 281230Z 35008KT 9999 FEW018 SCT220 03/01 Q1034 NOSIG

More Conditions Fewer Conditions

10-Day Weather Forecast

Almanac

Astronomy

Dec. 28, 2014 Rise Set
Actual Time
Civil Twilight
Nautical Twilight
Astronomical Twilight
Moon
Length of Visible Light
Length of Day
Tomorrow will be .
, % of the Moon is Illuminated

Today's Extremes

Country Highs Country Lows

Community

WunderPhotos

Upload Photos

1,781,249 photos uploaded!

WunderBlogs® & News

Nearby

Air Quality

  Air Quality AQ Index Pollutant
Not available.

Snow Depth

Station Depth Elevation

Earthquake Activity

City Distance Mag. Time & Date
Minimum magnitude displayed is 2.5.

Coastal Water Temperatures

Place Temperature

Nearby Weather Stations